Saint Charles, Kentucky
Current Conditions -  °F | °C
As of 9:55 PM on Sunday 23 Nov 2014 (Local Time) from K2I0 Reporting Station
Overcast Overcast  
Wind Chill: 62°   Ceiling: 1100
Heat Index: 62°   Visibility: 10mi
Dew Point: 61°   Wind: 24mph
Humidity: 97%   Direction: 240°WSW
Pressure: 29.37"   Gusts: 28mph
Location:  37.19°N, 87.56°W
Report Text: K2I0 240355Z AUTO 24021G24KT 10SM OVC011 16/16 A2937 RMK AO2 T01640159
Loading
Personal Weather Stations






























Interactive Weather Map New forecast layout! Learn more

10-Day Weather Forecast

Advertisements
Track Severe Weather on mobile